Meacham, Canada
Current Conditions -  °F | °C
As of 2:00 PM on Tuesday 21 Oct 2014 (Local Time) from CYXE Reporting Station
Broken Clouds Broken Clouds  
Wind Chill: 70°   Ceiling: 26000
Heat Index: 70°   Visibility: 15mi
Dew Point: 39°   Wind: 7mph
Humidity: 33%   Direction: 180°S
Pressure: 29.55"   Gusts: NA
Location:  52.1°N, 105.75°W
Report Text: CYXE 212000Z 18006KT 15SM SCT120 BKN260 21/04 A2955 RMK AC4CI3 SLP013 DENSITY ALT 3100FT
Loading
Personal Weather Stations






























Interactive Weather Map
Tropical Storm Tracking
New forecast layout! Learn more

10-Day Weather Forecast

Advertisements
Track Severe Weather on mobile